Time;durP1;ratioP1;P1;durP2;ratioP2;P2;SDS_P1;SDS_P2;PMS_P1;PMS_P2;Temp;Humidity;BMP_temperature;BMP_pressure;BME280_temperature;BME280_humidity;BME280_pressure;Samples;Min_cycle;Max_cycle;Signal;HPM_P1;HPM_P2
2024/03/26 00:00:10;;;;;;;;;;;2.40;99.90;;;;;;2076128;28;19913;-78
2024/03/26 00:01:10;;;;;;;;;;;2.40;99.90;;;;;;2076268;28;19988;-78
2024/03/26 00:02:11;;;;;;;;;;;2.40;99.90;;;;;;2067668;28;19991;-78
2024/03/26 00:03:11;;;;;;;;;;;2.50;99.90;;;;;;2067571;28;19918;-79
2024/03/26 00:04:12;;;;;;;;;;;2.40;99.90;;;;;;2076256;28;19993;-79
2024/03/26 00:05:12;;;;;;;;;;;2.40;99.90;;;;;;2067346;28;20408;-78
2024/03/26 00:06:13;;;;;;;;;;;2.40;99.90;;;;;;2067251;28;20004;-79
2024/03/26 00:07:13;;;;;;;;;;;2.40;99.90;;;;;;2075930;28;19953;-79
2024/03/26 00:08:14;;;;;;;;;;;2.40;99.90;;;;;;2076005;28;19952;-79
2024/03/26 00:09:14;;;;;;;;;;;2.40;99.90;;;;;;2076430;28;19944;-79
2024/03/26 00:10:15;;;;;;;;;;;2.40;99.90;;;;;;2076180;28;19924;-78
2024/03/26 00:11:15;;;;;;;;;;;2.40;99.90;;;;;;2076273;28;19980;-79
2024/03/26 00:12:16;;;;;;;;;;;2.40;99.90;;;;;;2067466;28;19924;-80
2024/03/26 00:13:16;;;;;;;;;;;2.30;99.90;;;;;;2067139;28;19909;-79
2024/03/26 00:14:17;;;;;;;;;;;2.30;99.90;;;;;;2067714;28;19913;-77
2024/03/26 00:15:17;;;;;;;;;;;2.30;99.90;;;;;;2067708;28;19913;-78
2024/03/26 00:16:18;;;;;;;;;;;2.30;99.90;;;;;;2075933;28;20310;-77
2024/03/26 00:17:18;;;;;;;;;;;2.20;99.90;;;;;;2067113;28;19928;-78
2024/03/26 00:18:18;;;;;;;;;;;2.30;99.90;;;;;;2067082;28;20043;-78
2024/03/26 00:19:19;;;;;;;;;;;2.20;99.90;;;;;;2067026;28;20335;-78
2024/03/26 00:20:19;;;;;;;;;;;2.20;99.90;;;;;;2067370;28;19917;-78
2024/03/26 00:21:20;;;;;;;;;;;2.20;99.90;;;;;;2067385;28;20308;-78
2024/03/26 00:22:20;;;;;;;;;;;2.20;99.90;;;;;;2067253;28;19917;-76
2024/03/26 00:23:21;;;;;;;;;;;2.20;99.90;;;;;;2067265;28;19920;-76
2024/03/26 00:24:22;;;;;;;;;;;2.20;99.90;;;;;;2058993;28;19917;-77
2024/03/26 00:25:22;;;;;;;;;;;2.20;99.90;;;;;;2064499;28;19918;-78
2024/03/26 00:26:23;;;;;;;;;;;2.20;99.90;;;;;;2066981;28;19926;-77
2024/03/26 00:27:23;;;;;;;;;;;2.20;99.90;;;;;;2075784;28;20076;-78
2024/03/26 00:28:24;;;;;;;;;;;2.20;99.90;;;;;;2076127;28;19924;-77
2024/03/26 00:29:24;;;;;;;;;;;2.20;99.90;;;;;;2075733;28;20039;-77
2024/03/26 00:30:25;;;;;;;;;;;2.20;99.90;;;;;;2066389;28;19925;-78
2024/03/26 00:31:25;;;;;;;;;;;2.10;99.90;;;;;;2062859;28;19976;-77
2024/03/26 00:32:25;;;;;;;;;;;2.10;99.90;;;;;;2060243;28;19921;-78
2024/03/26 00:33:26;;;;;;;;;;;2.00;99.90;;;;;;2059027;28;19917;-79
2024/03/26 00:34:26;;;;;;;;;;;2.00;99.90;;;;;;2067008;28;20421;-78
2024/03/26 00:35:27;;;;;;;;;;;2.00;99.90;;;;;;2067024;28;20064;-79
2024/03/26 00:36:27;;;;;;;;;;;2.00;99.90;;;;;;2075523;28;20504;-78
2024/03/26 00:37:28;;;;;;;;;;;2.00;99.90;;;;;;2076115;28;20374;-77
2024/03/26 00:38:29;;;;;;;;;;;2.00;99.90;;;;;;2075444;28;19914;-78
2024/03/26 00:39:29;;;;;;;;;;;2.00;99.90;;;;;;2066908;28;19918;-77
2024/03/26 00:40:30;;;;;;;;;;;2.00;99.90;;;;;;2058735;28;20423;-77
2024/03/26 00:41:30;;;;;;;;;;;1.90;99.90;;;;;;2067053;28;20343;-76
2024/03/26 00:42:30;;;;;;;;;;;2.00;99.90;;;;;;2066922;28;20252;-78
2024/03/26 00:43:31;;;;;;;;;;;1.90;99.90;;;;;;2066980;28;19921;-77
2024/03/26 00:44:32;;;;;;;;;;;2.00;99.90;;;;;;2076018;28;19935;-77
2024/03/26 00:45:33;;;;;;;;;;;2.00;99.90;;;;;;2066968;28;19981;-78
2024/03/26 00:46:33;;;;;;;;;;;2.00;99.90;;;;;;2067165;28;20940;-78
2024/03/26 00:47:34;;;;;;;;;;;2.00;99.90;;;;;;2075910;28;20403;-78
2024/03/26 00:48:34;;;;;;;;;;;1.90;99.90;;;;;;2075795;28;19917;-77
2024/03/26 00:49:35;;;;;;;;;;;1.90;99.90;;;;;;2067041;28;19988;-77
2024/03/26 00:50:35;;;;;;;;;;;2.00;99.90;;;;;;2066995;28;19944;-77
2024/03/26 00:51:40;;;;;;;;;;;1.90;99.90;;;;;;2075642;28;19917;-78
2024/03/26 00:52:40;;;;;;;;;;;2.00;99.90;;;;;;2075836;28;19996;-77
2024/03/26 00:53:40;;;;;;;;;;;2.00;99.90;;;;;;2072151;28;19917;-78
2024/03/26 00:54:41;;;;;;;;;;;2.00;99.90;;;;;;2075458;28;19913;-78
2024/03/26 00:55:41;;;;;;;;;;;1.90;99.90;;;;;;2075776;28;19923;-78
2024/03/26 00:56:42;;;;;;;;;;;1.90;99.90;;;;;;2066371;28;19921;-78
2024/03/26 00:57:43;;;;;;;;;;;1.90;99.90;;;;;;2067082;28;20301;-77
2024/03/26 00:58:43;;;;;;;;;;;1.90;99.90;;;;;;2075819;28;19967;-78
2024/03/26 00:59:44;;;;;;;;;;;1.90;99.90;;;;;;2075980;28;19972;-78
2024/03/26 01:00:44;;;;;;;;;;;1.90;99.90;;;;;;2066794;28;20685;-77
2024/03/26 01:01:45;;;;;;;;;;;1.80;99.90;;;;;;2066688;28;19965;-78
2024/03/26 01:02:45;;;;;;;;;;;1.90;99.90;;;;;;2075578;28;19947;-79
2024/03/26 01:03:46;;;;;;;;;;;1.90;99.90;;;;;;2075909;28;19920;-78
2024/03/26 01:04:46;;;;;;;;;;;1.90;99.90;;;;;;2071759;28;20260;-78
2024/03/26 01:05:53;;;;;;;;;;;1.90;99.90;;;;;;2072192;28;19922;-79
2024/03/26 01:06:54;;;;;;;;;;;2.00;99.90;;;;;;2072486;28;20016;-79
2024/03/26 01:07:54;;;;;;;;;;;2.00;99.90;;;;;;2075669;28;19917;-79
2024/03/26 01:08:55;;;;;;;;;;;2.00;99.90;;;;;;2070727;28;19941;-79
2024/03/26 01:09:55;;;;;;;;;;;2.00;99.90;;;;;;2066909;28;20100;-79
2024/03/26 01:10:56;;;;;;;;;;;1.90;99.90;;;;;;2066732;28;19926;-79
2024/03/26 01:11:56;;;;;;;;;;;1.90;99.90;;;;;;2066913;28;19921;-79
2024/03/26 01:12:57;;;;;;;;;;;1.90;99.90;;;;;;2066976;28;20049;-80
2024/03/26 01:13:57;;;;;;;;;;;1.90;99.90;;;;;;2066775;28;20004;-79
2024/03/26 01:14:58;;;;;;;;;;;1.90;99.90;;;;;;2067080;28;20287;-80
2024/03/26 01:15:58;;;;;;;;;;;1.90;99.90;;;;;;2066754;28;20408;-80
2024/03/26 01:16:59;;;;;;;;;;;1.90;99.90;;;;;;2066787;28;19929;-78
2024/03/26 01:17:59;;;;;;;;;;;1.90;99.90;;;;;;2066848;28;19918;-79
2024/03/26 01:19:00;;;;;;;;;;;1.90;99.90;;;;;;2075859;28;19909;-79
2024/03/26 01:20:00;;;;;;;;;;;1.90;99.90;;;;;;2075835;28;19921;-79
2024/03/26 01:21:03;;;;;;;;;;;1.90;99.90;;;;;;2066928;28;20225;-78
2024/03/26 01:22:03;;;;;;;;;;;1.90;99.90;;;;;;2064377;28;20448;-80
2024/03/26 01:23:04;;;;;;;;;;;1.90;99.90;;;;;;2058453;28;19977;-79
2024/03/26 01:24:04;;;;;;;;;;;1.90;99.90;;;;;;2058850;28;19962;-78
2024/03/26 01:25:07;;;;;;;;;;;1.90;99.90;;;;;;2075141;28;19921;-78
2024/03/26 01:26:07;;;;;;;;;;;1.90;99.90;;;;;;2072972;28;20311;-77
2024/03/26 01:27:08;;;;;;;;;;;1.90;99.90;;;;;;2070677;28;19916;-79
2024/03/26 01:28:08;;;;;;;;;;;1.90;99.90;;;;;;2079606;28;19917;-78
2024/03/26 01:29:09;;;;;;;;;;;1.80;99.90;;;;;;2075547;28;19917;-79
2024/03/26 01:30:10;;;;;;;;;;;1.80;99.90;;;;;;2075625;28;20402;-77
2024/03/26 01:31:10;;;;;;;;;;;1.80;99.90;;;;;;2071732;28;19920;-78
2024/03/26 01:32:11;;;;;;;;;;;1.80;99.90;;;;;;2066792;28;19917;-78
2024/03/26 01:33:11;;;;;;;;;;;1.80;99.90;;;;;;2058507;28;20395;-78
2024/03/26 01:34:11;;;;;;;;;;;1.80;99.90;;;;;;2058670;28;19921;-77
2024/03/26 01:35:12;;;;;;;;;;;1.90;99.90;;;;;;2058758;28;19914;-77
2024/03/26 01:36:13;;;;;;;;;;;1.90;99.90;;;;;;2058995;28;20172;-78
2024/03/26 01:37:13;;;;;;;;;;;1.80;99.90;;;;;;2066715;28;19998;-77
2024/03/26 01:38:14;;;;;;;;;;;1.80;99.90;;;;;;2075889;28;19917;-77
2024/03/26 01:39:15;;;;;;;;;;;1.80;99.90;;;;;;2066998;28;19925;-78
2024/03/26 01:40:16;;;;;;;;;;;1.80;99.90;;;;;;2067025;28;19913;-77
2024/03/26 01:41:16;;;;;;;;;;;1.80;99.90;;;;;;2075612;28;19928;-77
2024/03/26 01:42:16;;;;;;;;;;;1.70;99.90;;;;;;2075914;28;19982;-77
2024/03/26 01:43:17;;;;;;;;;;;1.70;99.90;;;;;;2075549;28;19913;-78
2024/03/26 01:44:17;;;;;;;;;;;1.70;99.90;;;;;;2075857;28;20349;-78
2024/03/26 01:45:18;;;;;;;;;;;1.70;99.90;;;;;;2075984;28;19928;-78
2024/03/26 01:46:18;;;;;;;;;;;1.70;99.90;;;;;;2075803;28;20660;-79
2024/03/26 01:47:19;;;;;;;;;;;1.70;99.90;;;;;;2079624;28;19967;-79
2024/03/26 01:48:19;;;;;;;;;;;1.60;99.90;;;;;;2075942;28;19917;-78
2024/03/26 01:49:20;;;;;;;;;;;1.70;99.90;;;;;;2075922;28;19917;-79
2024/03/26 01:50:20;;;;;;;;;;;1.70;99.90;;;;;;2072670;28;20383;-79
2024/03/26 01:51:21;;;;;;;;;;;1.60;99.90;;;;;;2072307;28;19921;-79
2024/03/26 01:52:24;;;;;;;;;;;1.70;99.90;;;;;;2063031;28;19918;-78
2024/03/26 01:53:24;;;;;;;;;;;1.60;99.90;;;;;;2066072;28;20326;-79
2024/03/26 01:54:25;;;;;;;;;;;1.60;99.90;;;;;;2056102;28;20407;-79
2024/03/26 01:55:26;;;;;;;;;;;1.60;99.90;;;;;;2061828;28;19924;-79
2024/03/26 01:56:26;;;;;;;;;;;1.60;99.90;;;;;;2066982;28;20421;-78
2024/03/26 01:57:27;;;;;;;;;;;1.50;99.90;;;;;;2064780;28;20202;-77
2024/03/26 01:58:27;;;;;;;;;;;1.50;99.90;;;;;;2075661;28;19936;-80
2024/03/26 01:59:32;;;;;;;;;;;1.50;99.90;;;;;;2067315;28;19913;-81
2024/03/26 02:00:33;;;;;;;;;;;1.50;99.90;;;;;;2059804;28;19913;-78
2024/03/26 02:01:34;;;;;;;;;;;1.50;99.90;;;;;;2067402;28;20114;-77
2024/03/26 02:02:35;;;;;;;;;;;1.50;99.90;;;;;;2067632;28;19914;-77
2024/03/26 02:03:36;;;;;;;;;;;1.50;99.90;;;;;;2059704;28;19917;-79
2024/03/26 02:04:36;;;;;;;;;;;1.50;99.90;;;;;;2071216;28;19921;-78
2024/03/26 02:05:37;;;;;;;;;;;1.50;99.90;;;;;;2075509;28;19917;-78
2024/03/26 02:06:37;;;;;;;;;;;1.50;99.90;;;;;;2075625;28;19913;-78
2024/03/26 02:07:38;;;;;;;;;;;1.50;99.90;;;;;;2075557;28;19921;-77
2024/03/26 02:08:39;;;;;;;;;;;1.50;99.90;;;;;;2066501;28;19918;-79
2024/03/26 02:09:39;;;;;;;;;;;1.50;99.90;;;;;;2066848;28;19917;-78
2024/03/26 02:10:40;;;;;;;;;;;1.50;99.90;;;;;;2075928;28;19913;-77
2024/03/26 02:11:40;;;;;;;;;;;1.50;99.90;;;;;;2075785;28;19961;-79
2024/03/26 02:12:41;;;;;;;;;;;1.50;99.90;;;;;;2075820;28;19917;-79
2024/03/26 02:13:44;;;;;;;;;;;1.40;99.90;;;;;;2075575;28;20380;-79
2024/03/26 02:14:45;;;;;;;;;;;1.40;99.90;;;;;;2075725;28;20290;-79
2024/03/26 02:15:45;;;;;;;;;;;1.40;99.90;;;;;;2075942;28;19920;-78
2024/03/26 02:16:46;;;;;;;;;;;1.40;99.90;;;;;;2075485;28;19925;-78
2024/03/26 02:17:46;;;;;;;;;;;1.30;99.90;;;;;;2075575;28;19921;-79
2024/03/26 02:18:47;;;;;;;;;;;1.30;99.90;;;;;;2075578;28;19971;-78
2024/03/26 02:19:47;;;;;;;;;;;1.40;99.90;;;;;;2066911;28;19913;-79
2024/03/26 02:20:48;;;;;;;;;;;1.40;99.90;;;;;;2066900;28;19992;-79
2024/03/26 02:21:48;;;;;;;;;;;1.40;99.90;;;;;;2075821;28;20404;-79
2024/03/26 02:22:55;;;;;;;;;;;1.30;99.90;;;;;;2066925;28;19917;-78
2024/03/26 02:23:55;;;;;;;;;;;1.40;99.90;;;;;;2067851;28;19913;-79
2024/03/26 02:24:56;;;;;;;;;;;1.40;99.90;;;;;;2078074;28;20372;-78
2024/03/26 02:25:56;;;;;;;;;;;1.30;99.90;;;;;;2068487;28;20004;-79
2024/03/26 02:26:57;;;;;;;;;;;1.30;99.90;;;;;;2067009;28;19928;-78
2024/03/26 02:27:58;;;;;;;;;;;1.30;99.90;;;;;;2075678;28;20375;-78
2024/03/26 02:28:58;;;;;;;;;;;1.30;99.90;;;;;;2075538;28;19917;-79
2024/03/26 02:29:59;;;;;;;;;;;1.30;99.90;;;;;;2075339;28;19999;-80
2024/03/26 02:30:59;;;;;;;;;;;1.30;99.90;;;;;;2072712;28;19964;-77
2024/03/26 02:32:00;;;;;;;;;;;1.30;99.90;;;;;;2071548;28;20353;-78
2024/03/26 02:33:00;;;;;;;;;;;1.30;99.90;;;;;;2075939;28;19913;-78
2024/03/26 02:34:01;;;;;;;;;;;1.30;99.90;;;;;;2075976;28;20447;-78
2024/03/26 02:35:01;;;;;;;;;;;1.30;99.90;;;;;;2075605;28;20307;-79
2024/03/26 02:36:02;;;;;;;;;;;1.30;99.90;;;;;;2075745;28;19917;-80
2024/03/26 02:37:02;;;;;;;;;;;1.30;99.90;;;;;;2075506;28;19932;-79
2024/03/26 02:38:03;;;;;;;;;;;1.30;99.90;;;;;;2075890;28;23390;-79
2024/03/26 02:39:04;;;;;;;;;;;1.30;99.90;;;;;;2066805;28;19943;-79
2024/03/26 02:40:05;;;;;;;;;;;1.30;99.90;;;;;;2066913;28;20566;-78
2024/03/26 02:41:06;;;;;;;;;;;1.30;99.90;;;;;;2066935;28;19921;-78
2024/03/26 02:42:07;;;;;;;;;;;1.20;99.90;;;;;;2066938;28;20467;-78
2024/03/26 02:43:07;;;;;;;;;;;1.20;99.90;;;;;;2058594;28;20090;-78
2024/03/26 02:44:08;;;;;;;;;;;1.20;99.90;;;;;;2069771;28;20359;-79
2024/03/26 02:45:09;;;;;;;;;;;1.20;99.90;;;;;;2076431;28;19913;-78
2024/03/26 02:46:09;;;;;;;;;;;1.10;99.90;;;;;;2066555;28;20011;-79
2024/03/26 02:47:10;;;;;;;;;;;1.10;99.90;;;;;;2066500;28;20028;-79
2024/03/26 02:48:10;;;;;;;;;;;1.10;99.90;;;;;;2074546;28;20406;-79
2024/03/26 02:49:11;;;;;;;;;;;1.10;99.90;;;;;;2075034;28;19913;-76
2024/03/26 02:50:11;;;;;;;;;;;1.00;99.90;;;;;;2066558;28;20016;-78
2024/03/26 02:51:12;;;;;;;;;;;1.00;99.90;;;;;;2067989;28;19917;-77
2024/03/26 02:52:12;;;;;;;;;;;1.00;99.90;;;;;;2068623;28;20036;-78
2024/03/26 02:53:13;;;;;;;;;;;1.00;99.90;;;;;;2060069;28;20348;-78
2024/03/26 02:54:13;;;;;;;;;;;1.00;99.90;;;;;;2069311;28;19949;-78
2024/03/26 02:55:14;;;;;;;;;;;1.00;99.90;;;;;;2078115;28;19921;-80
2024/03/26 02:56:14;;;;;;;;;;;1.00;99.90;;;;;;2077924;28;20025;-80
2024/03/26 02:57:15;;;;;;;;;;;1.00;99.90;;;;;;2081622;28;19925;-80
2024/03/26 02:58:15;;;;;;;;;;;0.90;99.90;;;;;;2078717;28;19975;-79
2024/03/26 02:59:16;;;;;;;;;;;0.90;99.90;;;;;;2078202;28;19913;-78
2024/03/26 03:00:16;;;;;;;;;;;1.00;99.90;;;;;;2069416;28;19924;-77
2024/03/26 03:01:17;;;;;;;;;;;1.00;99.90;;;;;;2069942;28;19963;-79
2024/03/26 03:02:19;;;;;;;;;;;1.00;99.90;;;;;;2061296;28;19918;-79
2024/03/26 03:03:19;;;;;;;;;;;1.00;99.90;;;;;;2049264;28;20235;-79
2024/03/26 03:04:20;;;;;;;;;;;1.10;99.90;;;;;;2061402;28;19918;-77
2024/03/26 03:05:20;;;;;;;;;;;1.10;99.90;;;;;;2070200;28;20429;-79
2024/03/26 03:06:21;;;;;;;;;;;1.10;99.90;;;;;;2075079;28;19924;-78
2024/03/26 03:07:21;;;;;;;;;;;1.00;99.90;;;;;;2083718;28;19924;-78
2024/03/26 03:08:22;;;;;;;;;;;1.00;99.90;;;;;;2082783;28;19956;-78
2024/03/26 03:09:22;;;;;;;;;;;1.00;99.90;;;;;;2077641;28;19898;-79
2024/03/26 03:10:23;;;;;;;;;;;1.00;99.90;;;;;;2061812;28;20124;-78
2024/03/26 03:11:24;;;;;;;;;;;1.00;99.90;;;;;;2069987;28;19914;-78
2024/03/26 03:12:24;;;;;;;;;;;1.00;99.90;;;;;;2070542;28;19921;-79
2024/03/26 03:13:25;;;;;;;;;;;1.00;99.90;;;;;;2086883;28;19913;-79
2024/03/26 03:14:25;;;;;;;;;;;1.00;99.90;;;;;;2086441;28;19916;-79
2024/03/26 03:15:26;;;;;;;;;;;1.00;99.90;;;;;;2087056;28;19907;-78
2024/03/26 03:16:26;;;;;;;;;;;1.00;99.90;;;;;;2087294;28;19913;-79
2024/03/26 03:17:27;;;;;;;;;;;1.00;99.90;;;;;;2078402;28;19929;-78
2024/03/26 03:18:27;;;;;;;;;;;1.00;99.90;;;;;;2077652;28;20005;-78
2024/03/26 03:19:28;;;;;;;;;;;1.00;99.90;;;;;;2086356;28;19940;-80
2024/03/26 03:20:28;;;;;;;;;;;1.00;99.90;;;;;;2087101;28;19912;-78
2024/03/26 03:21:29;;;;;;;;;;;1.00;99.90;;;;;;2091171;28;19913;-78
2024/03/26 03:22:29;;;;;;;;;;;1.00;99.90;;;;;;2083887;28;19901;-78
2024/03/26 03:23:30;;;;;;;;;;;1.00;99.90;;;;;;2087437;28;19948;-79
2024/03/26 03:24:30;;;;;;;;;;;1.00;99.90;;;;;;2078158;28;19917;-78
2024/03/26 03:25:30;;;;;;;;;;;1.00;99.90;;;;;;2078619;28;19932;-79
2024/03/26 03:26:31;;;;;;;;;;;1.00;99.90;;;;;;2082722;28;19952;-77
2024/03/26 03:27:32;;;;;;;;;;;1.00;99.90;;;;;;2084062;28;20228;-78
2024/03/26 03:28:32;;;;;;;;;;;1.00;99.90;;;;;;2086930;28;19924;-78
2024/03/26 03:29:33;;;;;;;;;;;1.00;99.90;;;;;;2085491;28;19948;-78
2024/03/26 03:30:34;;;;;;;;;;;1.00;99.90;;;;;;2087240;28;19905;-78
2024/03/26 03:31:34;;;;;;;;;;;1.00;99.90;;;;;;2083412;28;19912;-78
2024/03/26 03:32:35;;;;;;;;;;;1.00;99.90;;;;;;2079300;28;19944;-79
2024/03/26 03:33:35;;;;;;;;;;;1.00;99.90;;;;;;2079167;28;19925;-78
2024/03/26 03:34:35;;;;;;;;;;;1.00;99.90;;;;;;2087231;28;19917;-80
2024/03/26 03:35:37;;;;;;;;;;;1.00;99.90;;;;;;2087684;28;19984;-79
2024/03/26 03:36:38;;;;;;;;;;;0.90;99.90;;;;;;2086881;28;19901;-78
2024/03/26 03:37:38;;;;;;;;;;;0.90;99.90;;;;;;2086549;28;19901;-78
2024/03/26 03:38:39;;;;;;;;;;;0.90;99.90;;;;;;2085809;28;20279;-78
2024/03/26 03:39:40;;;;;;;;;;;0.90;99.90;;;;;;2085349;28;19914;-79
2024/03/26 03:40:41;;;;;;;;;;;0.90;99.90;;;;;;2084550;28;19932;-78
2024/03/26 03:41:42;;;;;;;;;;;0.90;99.90;;;;;;2089499;28;20027;-78
2024/03/26 03:42:43;;;;;;;;;;;0.90;99.90;;;;;;2080283;28;19936;-79
2024/03/26 03:43:43;;;;;;;;;;;0.90;99.90;;;;;;2080814;28;19919;-78
2024/03/26 03:44:43;;;;;;;;;;;0.90;99.90;;;;;;2079688;28;19913;-77
2024/03/26 03:45:44;;;;;;;;;;;0.90;99.90;;;;;;2080043;28;19917;-78
2024/03/26 03:46:44;;;;;;;;;;;0.90;99.90;;;;;;2071316;28;19929;-79
2024/03/26 03:47:45;;;;;;;;;;;0.90;99.90;;;;;;2063723;28;19928;-78
2024/03/26 03:48:45;;;;;;;;;;;0.90;99.90;;;;;;2063829;28;19942;-78
2024/03/26 03:49:46;;;;;;;;;;;0.80;99.90;;;;;;2073028;28;19941;-77
2024/03/26 03:50:46;;;;;;;;;;;0.90;99.90;;;;;;2072079;28;20458;-78
2024/03/26 03:51:47;;;;;;;;;;;0.80;99.90;;;;;;2078207;28;19917;-78
2024/03/26 03:52:47;;;;;;;;;;;0.80;99.90;;;;;;2063291;28;20037;-78
2024/03/26 03:53:48;;;;;;;;;;;0.80;99.90;;;;;;2061884;28;19926;-79
2024/03/26 03:54:48;;;;;;;;;;;0.90;99.90;;;;;;2069584;28;19921;-80
2024/03/26 03:55:49;;;;;;;;;;;0.80;99.90;;;;;;2053676;28;19921;-78
2024/03/26 03:56:49;;;;;;;;;;;0.80;99.90;;;;;;2053138;28;19921;-78
2024/03/26 03:57:50;;;;;;;;;;;0.80;99.90;;;;;;2069054;28;19917;-77
2024/03/26 03:58:51;;;;;;;;;;;0.80;99.90;;;;;;2078042;28;19924;-77
2024/03/26 03:59:51;;;;;;;;;;;0.90;99.90;;;;;;2078034;28;19913;-78
2024/03/26 04:00:52;;;;;;;;;;;0.90;99.90;;;;;;2078542;28;19925;-79
2024/03/26 04:01:52;;;;;;;;;;;0.90;99.90;;;;;;2073630;28;19932;-80
2024/03/26 04:02:53;;;;;;;;;;;0.90;99.90;;;;;;2073265;28;19969;-76
2024/03/26 04:03:53;;;;;;;;;;;0.90;99.90;;;;;;2078189;28;19916;-80
2024/03/26 04:04:53;;;;;;;;;;;0.80;99.90;;;;;;2077826;28;19913;-80
2024/03/26 04:05:54;;;;;;;;;;;0.90;99.90;;;;;;2068689;28;20335;-77
2024/03/26 04:06:54;;;;;;;;;;;0.90;99.90;;;;;;2068491;28;19917;-78
2024/03/26 04:07:55;;;;;;;;;;;0.90;99.90;;;;;;2077313;28;19917;-78
2024/03/26 04:08:55;;;;;;;;;;;0.90;99.90;;;;;;2077860;28;19917;-78
2024/03/26 04:09:56;;;;;;;;;;;0.90;99.90;;;;;;2077669;28;19921;-78
2024/03/26 04:10:57;;;;;;;;;;;0.90;99.90;;;;;;2068623;28;20299;-77
2024/03/26 04:11:57;;;;;;;;;;;0.90;99.90;;;;;;2060163;28;19921;-78
2024/03/26 04:12:58;;;;;;;;;;;0.90;99.90;;;;;;2068673;28;20387;-78
2024/03/26 04:13:58;;;;;;;;;;;0.80;99.90;;;;;;2071387;28;19929;-78
2024/03/26 04:14:58;;;;;;;;;;;0.80;99.90;;;;;;2069924;28;19922;-77
2024/03/26 04:16:02;;;;;;;;;;;0.80;99.90;;;;;;2069719;28;20179;-77
2024/03/26 04:17:03;;;;;;;;;;;0.80;99.90;;;;;;2077159;28;19925;-78
2024/03/26 04:18:04;;;;;;;;;;;0.90;99.90;;;;;;2077281;28;19929;-77
2024/03/26 04:19:04;;;;;;;;;;;0.90;99.90;;;;;;2068837;28;20007;-77
2024/03/26 04:20:05;;;;;;;;;;;0.80;99.90;;;;;;2073255;28;19924;-77
2024/03/26 04:21:05;;;;;;;;;;;0.80;99.90;;;;;;2077317;28;20326;-78
2024/03/26 04:22:06;;;;;;;;;;;1.10;99.90;;;;;;2077181;28;19928;-78
2024/03/26 04:23:06;;;;;;;;;;;1.50;99.90;;;;;;2076829;28;19983;-77
2024/03/26 04:24:07;;;;;;;;;;;1.70;99.90;;;;;;2077076;28;19924;-77
2024/03/26 04:25:07;;;;;;;;;;;1.80;99.90;;;;;;2077269;28;19917;-78
2024/03/26 04:26:08;;;;;;;;;;;1.80;99.90;;;;;;2076467;28;19960;-76
2024/03/26 04:27:09;;;;;;;;;;;1.80;99.90;;;;;;2067899;28;19961;-76
2024/03/26 04:28:09;;;;;;;;;;;1.70;99.90;;;;;;2067794;28;20012;-77
2024/03/26 04:29:10;;;;;;;;;;;1.90;99.90;;;;;;2068974;28;19929;-77
2024/03/26 04:30:10;;;;;;;;;;;2.20;99.90;;;;;;2067823;28;19913;-76
2024/03/26 04:31:11;;;;;;;;;;;2.10;99.90;;;;;;2064515;28;20443;-77
2024/03/26 04:32:11;;;;;;;;;;;2.00;99.90;;;;;;2067879;28;20348;-77
2024/03/26 04:33:12;;;;;;;;;;;2.00;99.90;;;;;;2068449;28;19991;-77
2024/03/26 04:34:12;;;;;;;;;;;2.20;99.90;;;;;;2076855;28;20372;-78
2024/03/26 04:35:13;;;;;;;;;;;2.30;99.90;;;;;;2063824;28;19973;-76
2024/03/26 04:36:14;;;;;;;;;;;2.50;99.90;;;;;;2060016;28;19936;-78
2024/03/26 04:37:14;;;;;;;;;;;2.60;99.90;;;;;;2067909;28;19929;-77
2024/03/26 04:38:15;;;;;;;;;;;2.50;99.90;;;;;;2078795;28;19925;-77
2024/03/26 04:39:15;;;;;;;;;;;2.40;99.90;;;;;;2068274;28;20541;-76
2024/03/26 04:40:16;;;;;;;;;;;2.40;99.90;;;;;;2059880;28;20034;-78
2024/03/26 04:41:16;;;;;;;;;;;2.40;99.90;;;;;;2067976;28;19909;-78
2024/03/26 04:42:17;;;;;;;;;;;2.40;99.90;;;;;;2076819;28;20043;-79
2024/03/26 04:43:17;;;;;;;;;;;2.30;99.90;;;;;;2059470;28;19918;-78
2024/03/26 04:44:18;;;;;;;;;;;2.20;99.90;;;;;;2060115;28;19925;-78
2024/03/26 04:45:19;;;;;;;;;;;2.20;99.90;;;;;;2063840;28;19956;-77
2024/03/26 04:46:19;;;;;;;;;;;2.10;99.90;;;;;;2067905;28;19925;-77
2024/03/26 04:47:20;;;;;;;;;;;1.90;99.90;;;;;;2076560;28;19917;-79
2024/03/26 04:48:20;;;;;;;;;;;1.70;99.90;;;;;;2068513;28;19921;-76
2024/03/26 04:49:21;;;;;;;;;;;1.50;99.90;;;;;;2068316;28;19918;-77
2024/03/26 04:50:21;;;;;;;;;;;1.50;99.90;;;;;;2076228;28;20387;-78
2024/03/26 04:51:22;;;;;;;;;;;1.40;99.90;;;;;;2064581;28;19924;-79
2024/03/26 04:52:22;;;;;;;;;;;1.30;99.90;;;;;;2068327;28;20553;-79
2024/03/26 04:53:23;;;;;;;;;;;1.30;99.90;;;;;;2077453;28;19942;-78
2024/03/26 04:54:23;;;;;;;;;;;1.30;99.90;;;;;;2077491;28;20371;-79
2024/03/26 04:55:24;;;;;;;;;;;1.20;99.90;;;;;;2068683;28;19917;-79
2024/03/26 04:56:24;;;;;;;;;;;1.10;99.90;;;;;;2068362;28;20351;-79
2024/03/26 04:57:25;;;;;;;;;;;1.10;99.90;;;;;;2077342;28;19928;-78
2024/03/26 04:58:25;;;;;;;;;;;1.10;99.90;;;;;;2081114;28;19913;-78
2024/03/26 04:59:26;;;;;;;;;;;1.00;99.90;;;;;;2068201;28;19964;-78
2024/03/26 05:00:26;;;;;;;;;;;1.00;99.90;;;;;;2068613;28;20485;-78
2024/03/26 05:01:27;;;;;;;;;;;1.00;99.90;;;;;;2076100;28;19913;-78
2024/03/26 05:02:27;;;;;;;;;;;1.00;99.90;;;;;;2068324;28;19913;-77
2024/03/26 05:03:28;;;;;;;;;;;1.00;99.90;;;;;;2067735;28;19921;-79
2024/03/26 05:04:28;;;;;;;;;;;1.00;99.90;;;;;;2076212;28;19921;-78
2024/03/26 05:05:29;;;;;;;;;;;1.00;99.90;;;;;;2068048;28;19913;-78
2024/03/26 05:06:30;;;;;;;;;;;1.10;99.90;;;;;;2067435;28;19979;-78
2024/03/26 05:07:31;;;;;;;;;;;1.10;99.90;;;;;;2076505;28;20344;-78
2024/03/26 05:08:32;;;;;;;;;;;1.10;99.90;;;;;;2076860;28;19913;-77
2024/03/26 05:09:34;;;;;;;;;;;1.10;99.90;;;;;;2078541;28;20323;-78
2024/03/26 05:10:34;;;;;;;;;;;1.10;99.90;;;;;;2079163;28;19913;-78
2024/03/26 05:11:35;;;;;;;;;;;1.10;99.90;;;;;;2068276;28;19948;-77
2024/03/26 05:12:35;;;;;;;;;;;1.10;99.90;;;;;;2060052;28;19917;-79
2024/03/26 05:13:36;;;;;;;;;;;1.00;99.90;;;;;;2064053;28;19953;-77
2024/03/26 05:14:36;;;;;;;;;;;1.10;99.90;;;;;;2075867;28;19924;-78
2024/03/26 05:15:38;;;;;;;;;;;1.10;99.90;;;;;;2078448;28;19917;-77
2024/03/26 05:16:38;;;;;;;;;;;1.10;99.90;;;;;;2079147;28;19921;-79
2024/03/26 05:17:39;;;;;;;;;;;1.10;99.90;;;;;;2071045;28;19944;-70
2024/03/26 05:18:39;;;;;;;;;;;1.10;99.90;;;;;;2070715;28;20407;-73
2024/03/26 05:19:40;;;;;;;;;;;1.20;99.90;;;;;;2075693;28;19917;-70
2024/03/26 05:20:40;;;;;;;;;;;1.20;99.90;;;;;;2069873;28;19943;-78
2024/03/26 05:21:41;;;;;;;;;;;1.20;99.90;;;;;;2060454;28;19950;-74
2024/03/26 05:22:41;;;;;;;;;;;1.20;99.90;;;;;;2067843;28;20001;-74
2024/03/26 05:23:46;;;;;;;;;;;1.20;99.90;;;;;;2067751;28;19917;-74
2024/03/26 05:24:46;;;;;;;;;;;1.30;99.90;;;;;;2067173;28;19920;-73
2024/03/26 05:25:47;;;;;;;;;;;1.20;99.90;;;;;;2066650;28;19952;-74
2024/03/26 05:26:47;;;;;;;;;;;1.30;99.90;;;;;;2066800;28;21074;-74
2024/03/26 05:27:48;;;;;;;;;;;1.40;99.90;;;;;;2066915;28;20348;-74
2024/03/26 05:28:49;;;;;;;;;;;1.40;99.90;;;;;;2078664;28;19975;-74
2024/03/26 05:29:50;;;;;;;;;;;1.40;99.90;;;;;;2077125;28;20280;-74
2024/03/26 05:30:51;;;;;;;;;;;1.40;99.90;;;;;;2075233;28;20409;-74
2024/03/26 05:31:51;;;;;;;;;;;1.40;99.90;;;;;;2073699;28;19952;-73
2024/03/26 05:32:52;;;;;;;;;;;1.40;99.90;;;;;;2066875;28;20261;-73
2024/03/26 05:33:52;;;;;;;;;;;1.50;99.90;;;;;;2066949;28;19925;-72
2024/03/26 05:34:53;;;;;;;;;;;1.50;99.90;;;;;;2067110;28;20348;-73
2024/03/26 05:35:53;;;;;;;;;;;1.60;99.90;;;;;;2073755;28;20309;-73
2024/03/26 05:36:53;;;;;;;;;;;1.60;99.90;;;;;;2069687;28;19975;-72
2024/03/26 05:37:54;;;;;;;;;;;1.60;99.90;;;;;;2068106;28;20479;-74
2024/03/26 05:38:54;;;;;;;;;;;1.60;99.90;;;;;;2074854;28;20299;-74
2024/03/26 05:39:55;;;;;;;;;;;1.60;99.90;;;;;;2070468;28;20386;-73
2024/03/26 05:40:56;;;;;;;;;;;1.60;99.90;;;;;;2066850;28;20051;-72
2024/03/26 05:41:57;;;;;;;;;;;1.60;99.90;;;;;;2058496;28;19973;-73
2024/03/26 05:42:57;;;;;;;;;;;1.70;99.90;;;;;;2066709;28;20000;-73
2024/03/26 05:43:58;;;;;;;;;;;1.70;99.90;;;;;;2066995;28;19945;-73
2024/03/26 05:44:59;;;;;;;;;;;1.80;99.90;;;;;;2066801;28;20414;-73
2024/03/26 05:45:59;;;;;;;;;;;1.80;99.90;;;;;;2075626;28;19955;-74
2024/03/26 05:47:00;;;;;;;;;;;1.80;99.90;;;;;;2075672;28;19928;-73
2024/03/26 05:48:00;;;;;;;;;;;1.90;99.90;;;;;;2066715;28;19917;-73
2024/03/26 05:49:01;;;;;;;;;;;2.00;99.90;;;;;;2066865;28;19913;-74
2024/03/26 05:50:04;;;;;;;;;;;2.10;99.90;;;;;;2075856;28;20268;-72
2024/03/26 05:51:04;;;;;;;;;;;2.10;99.90;;;;;;2075801;28;20379;-72
2024/03/26 05:52:05;;;;;;;;;;;2.20;99.90;;;;;;2077172;28;19927;-73
2024/03/26 05:53:06;;;;;;;;;;;2.30;99.90;;;;;;2075517;28;20271;-73
2024/03/26 05:54:07;;;;;;;;;;;2.40;99.90;;;;;;2075863;28;19972;-73
2024/03/26 05:55:07;;;;;;;;;;;2.40;99.90;;;;;;2075574;28;19917;-73
2024/03/26 05:56:08;;;;;;;;;;;2.50;99.90;;;;;;2075349;28;19913;-74
2024/03/26 05:57:08;;;;;;;;;;;2.50;99.90;;;;;;2062413;28;20346;-79
2024/03/26 05:58:09;;;;;;;;;;;2.60;99.90;;;;;;2063344;28;20369;-72